ADDS METAR Data INFO
IDs: Format: Raw Decoded Include TAF

Data at: 0102 UTC 24 Jun 2018

PAPN 240056Z AUTO 33006KT 10SM OVC055 13/05 A3011 RMK AO2 RAB25E38 SLP197 P0000 T01280050
PAPN 232356Z AUTO 35009KT 10SM OVC044 12/06 A3011 RMK AO2 RAE39 SLP199 P0000 60000 T01220056 10122 20106 58001
PAPN 232256Z AUTO 33006KT 10SM -RA BKN033 OVC044 11/06 A3012 RMK AO2 RAB00E21B39 SLP200 P0000 T01110056
PAPN 232156Z AUTO 33011KT 10SM OVC041 11/06 A3011 RMK AO2 RAB22E48 SLP199 P0000 T01110061
PAPN 232056Z AUTO 32008KT 10SM OVC038 11/08 A3012 RMK AO2 SLP200 T01060083 53001
PAPN 231956Z AUTO 30005KT 10SM OVC044 11/08 A3011 RMK AO2 SLP198 T01110078
PAPN 231856Z AUTO 30004KT 10SM BKN048 OVC065 11/08 A3011 RMK AO2 SLP199 T01110078
PAPN 231844Z AUTO 31004KT 10SM SCT016 SCT050 OVC065 11/08 A3011 RMK AO2
PAPN 231829Z AUTO 30004KT 10SM BKN016 OVC065 11/08 A3011 RMK AO2
PAPN 231807Z AUTO 00000KT 10SM BKN013 OVC050 11/07 A3011 RMK AO2
PAPN 231756Z AUTO 00000KT 10SM SCT013 BKN050 OVC065 11/07 A3011 RMK AO2 SLP199 T01060072 10106 20050 50000
PAPN 231656Z AUTO 13003KT 10SM FEW006 OVC065 09/08 A3012 RMK AO2 SLP200 T00940083
PAPN 231556Z AUTO 00000KT 10SM FEW022 OVC065 09/08 A3011 RMK AO2 SLP198 T00890078
PAPN 231545Z AUTO 00000KT 10SM FEW020 OVC065 08/08 A3011 RMK AO2
PAPN 231516Z AUTO 00000KT 8SM BKN020 OVC065 07/07 A3011 RMK AO2
PAPN 231456Z AUTO 06003KT 7SM FEW020 OVC060 07/07 A3011 RMK AO2 SLP199 T00670067 53003
PAPN 231356Z AUTO 11003KT 8SM FEW019 OVC060 07/07 A3011 RMK AO2 SLP197 T00720067
PAPN 231337Z AUTO 17004KT 7SM FEW001 OVC060 07/07 A3011 RMK AO2
PAPN 231256Z AUTO 10005KT 10SM OVC055 05/04 A3011 RMK AO2 SLP197 T00500044
PAPN 231249Z AUTO 00000KT 4SM BR OVC055 06/06 A3010 RMK AO2
PAPN 231239Z AUTO 10003KT 1 1/2SM BR OVC055 06/05 A3010 RMK AO2
PAPN 231156Z AUTO 15003KT 10SM SCT049 08/07 A3010 RMK AO2 SLP196 70008 T00780072 10117 20067 52001
PAPN 231056Z AUTO 12005KT 10SM OVC049 08/07 A3010 RMK AO2 SLP196 T00780072
PAPN 231014Z AUTO 12005KT 10SM FEW004 BKN049 08/08 A3010 RMK AO2
PAPN 230956Z AUTO 09006KT 10SM FEW049 07/06 A3010 RMK AO2 SLP195 T00670061
PAPN 230856Z AUTO 00000KT 10SM OVC043 09/08 A3010 RMK AO2 SLP195 T00890078 51006
PAPN 230756Z AUTO 00000KT 10SM OVC055 09/08 A3010 RMK AO2 SLP195 T00890078 401390078
PAPN 230712Z AUTO 20004KT 10SM SCT025 BKN048 OVC060 09/08 A3010 RMK AO2
PAPN 230656Z AUTO 19005KT 10SM BKN025 BKN034 BKN060 10/08 A3009 RMK AO2 SLP192 T01000083
PAPN 230621Z AUTO 14008KT 10SM BKN022 BKN028 11/07 A3009 RMK AO2
PAPN 230556Z AUTO 06004KT 10SM SCT060 11/07 A3008 RMK AO2 SLP189 T01110072 10139 20106 53002
PAPN 230456Z AUTO 06006KT 10SM SCT028 12/07 A3008 RMK AO2 SLP187 T01220067
PAPN 230256Z AUTO 02009KT 10SM FEW037 SCT055 12/06 A3008 RMK AO2 SLP186 T01220061 58003
PAPN 230156Z AUTO 34008KT 10SM BKN038 13/04 A3008 RMK AO2 SLP188 T01330044
PAPN 230056Z AUTO 33005KT 10SM FEW075 13/04 A3009 RMK AO2 SLP190 T01280039
PAPN 222356Z AUTO 31009KT 10SM CLR 12/05 A3009 RMK AO2 SLP190 60000 T01220050 10122 20083 50003
PAPN 222256Z AUTO 29011KT 10SM OVC055 11/07 A3009 RMK AO2 SLP190 T01110067
PAPN 222156Z AUTO 28006KT 10SM OVC049 11/06 A3008 RMK AO2 SLP189 T01110061
PAPN 222056Z AUTO 30004KT 10SM BKN043 OVC065 10/07 A3008 RMK AO2 SLP187 60000 T01000067 53004
PAPN 221956Z AUTO 30004KT 10SM OVC035 09/07 A3007 RMK AO2 RAE35 SLP185 P0000 T00940067
PAPN 221930Z AUTO 00000KT 10SM -RA OVC033 09/07 A3007 RMK AO2 P0000
PAPN 221856Z AUTO 00000KT 9SM -RA FEW008 BKN025 OVC029 08/07 A3006 RMK AO2 RAB41 SLP183 P0000 T00830067
PAPN 221854Z AUTO 00000KT 8SM -RA SCT008 BKN025 OVC029 08/07 A3006 RMK AO2 RAB41 P0000
PAPN 221822Z AUTO 22005KT 10SM BKN008 OVC025 08/07 A3006 RMK AO2 CIG 006V010
PAPN 221756Z AUTO 23003KT 10SM FEW004 BKN027 OVC043 08/07 A3005 RMK AO2 RAB19E34 SLP179 P0000 60008 T00830067 10083 20078 51016
PAPN 221725Z AUTO 30004KT 4SM -RA BR FEW008 BKN030 OVC037 08/07 A3005 RMK AO2 RAB19 P0000
PAPN 221720Z AUTO 29003KT 2SM -RA BR FEW008 BKN021 OVC033 08/07 A3005 RMK AO2 VIS 1 1/2V3 RAB19 P0000
PAPN 221705Z AUTO 28004KT 5SM BR FEW008 OVC013 08/07 A3004 RMK AO2
PAPN 221656Z AUTO 27006KT 10SM OVC011 08/06 A3004 RMK AO2 RAE22 SLP174 P0000 T00780061
PAPN 221615Z AUTO 30004KT 4SM -RA BR SCT005 BKN011 OVC039 08/07 A3003 RMK AO2 P0000
PAPN 221608Z AUTO 29006KT 2 1/2SM -RA BR BKN005 BKN014 OVC039 08/07 A3003 RMK AO2 CIG 003V010 P0000
PAPN 221600Z AUTO 28005KT 2 1/2SM -RA BR SCT005 BKN008 OVC014 08/07 A3002 RMK AO2 CIG 005V010 P0000
PAPN 221556Z AUTO 26005KT 3SM -RA BR BKN005 BKN008 OVC014 08/07 A3002 RMK AO2 SLP168 P0007 T00780072
PAPN 221553Z AUTO 26006KT 3SM -RA BR BKN005 BKN010 OVC014 08/07 A3002 RMK AO2 CIG 003V008 P0007
PAPN 221544Z AUTO 25007KT 2 1/2SM -RA BR BKN003 OVC007 08/07 A3002 RMK AO2 P0006
PAPN 221535Z AUTO 25009KT 3SM -RA BR OVC003 08/07 A3002 RMK AO2 P0006
PAPN 221527Z AUTO 25008KT 2 1/2SM -RA BR OVC003 08/07 A3002 RMK AO2 P0005
PAPN 221510Z AUTO 26008KT 1 3/4SM -RA BR BKN003 BKN013 OVC043 08/07 A3001 RMK AO2 P0003
PAPN 221502Z AUTO 25008KT 2 1/2SM RA BR SCT003 BKN013 OVC043 08/07 A3001 RMK AO2 P0001
PAPN 221456Z AUTO 26009KT 4SM -RA BR FEW003 BKN021 OVC041 08/07 A3001 RMK AO2 RAB11 SLP163 P0001 60001 T00780072 51009
PAPN 221451Z AUTO 25009KT 5SM -RA BR FEW003 BKN014 OVC035 08/08 A3001 RMK AO2 RAB11 P0001
PAPN 221434Z AUTO 25009KT 4SM -RA BR FEW005 BKN016 OVC027 08/08 A3000 RMK AO2 RAB11 P0000
PAPN 221415Z AUTO 23008KT 5SM -RA BR BKN005 BKN008 OVC034 08/08 A3000 RMK AO2 RAB11 P0000
PAPN 221356Z AUTO 22007KT 10SM 08/07 A2999 RMK AO2 RAE39 SLP158 P0000 T00830072
PAPN 221313Z AUTO 25007KT 5SM -RA BR SCT003 BKN039 OVC045 08/07 A2998 RMK AO2 P0000